createdAt,value
2018-12-17T00:00:15.802Z,22.15
2018-12-17T00:00:47.397Z,22.14
2018-12-17T00:01:18.991Z,22.13
2018-12-17T00:01:50.586Z,22.10
2018-12-17T00:02:22.189Z,22.10
2018-12-17T00:02:53.824Z,22.10
2018-12-17T00:03:25.427Z,22.09
2018-12-17T00:03:57.021Z,22.08
2018-12-17T00:04:28.613Z,22.06
2018-12-17T00:05:00.206Z,22.06
2018-12-17T00:05:31.802Z,22.05
2018-12-17T00:06:03.402Z,22.06
2018-12-17T00:06:34.995Z,22.06
2018-12-17T00:07:06.617Z,22.05
2018-12-17T00:07:38.232Z,22.05
2018-12-17T00:08:09.859Z,22.05
2018-12-17T00:08:41.467Z,22.04
2018-12-17T00:09:13.076Z,22.04
2018-12-17T00:09:44.677Z,22.04
2018-12-17T00:10:16.277Z,22.03
2018-12-17T00:10:47.870Z,22.02
2018-12-17T00:11:19.470Z,22.03
2018-12-17T00:11:51.085Z,22.03
2018-12-17T00:12:22.687Z,22.02
2018-12-17T00:12:54.308Z,22.02
2018-12-17T00:13:25.906Z,22.03
2018-12-17T00:13:57.483Z,22.03
2018-12-17T00:14:29.096Z,22.04
2018-12-17T00:15:00.710Z,22.04
2018-12-17T00:15:32.326Z,22.05
2018-12-17T00:16:03.927Z,22.05
2018-12-17T00:16:35.521Z,22.05
2018-12-17T00:17:07.119Z,22.06
2018-12-17T00:17:38.728Z,22.06
2018-12-17T00:18:10.349Z,22.07
2018-12-17T00:18:41.929Z,22.08
2018-12-17T00:19:13.540Z,22.07
2018-12-17T00:19:45.138Z,22.08
2018-12-17T00:20:16.739Z,22.08
2018-12-17T00:20:48.341Z,22.09
2018-12-17T00:21:19.924Z,22.07
2018-12-17T00:21:51.531Z,22.11
2018-12-17T00:22:23.129Z,22.12
2018-12-17T00:22:54.728Z,22.14
2018-12-17T00:23:26.337Z,22.15
2018-12-17T00:23:57.920Z,22.16
2018-12-17T00:24:29.522Z,22.18
2018-12-17T00:25:01.130Z,22.18
2018-12-17T00:25:32.729Z,22.21
2018-12-17T00:26:04.329Z,22.22
2018-12-17T00:26:35.932Z,22.24
2018-12-17T00:27:07.547Z,22.27
2018-12-17T00:27:39.148Z,22.29
2018-12-17T00:28:10.781Z,22.32
2018-12-17T00:28:42.387Z,22.35
2018-12-17T00:29:13.994Z,22.38
2018-12-17T00:29:45.577Z,22.40
2018-12-17T00:30:17.170Z,22.44
2018-12-17T00:30:48.766Z,22.47
2018-12-17T00:31:20.359Z,22.51
2018-12-17T00:31:51.969Z,22.54
2018-12-17T00:32:23.570Z,22.56
2018-12-17T00:32:55.173Z,22.59
2018-12-17T00:33:26.820Z,22.57
2018-12-17T00:33:58.429Z,22.63
2018-12-17T00:34:30.040Z,22.66
2018-12-17T00:35:01.657Z,22.69
2018-12-17T00:35:33.249Z,22.69
2018-12-17T00:36:04.841Z,22.71
2018-12-17T00:36:36.429Z,22.74
2018-12-17T00:37:08.023Z,22.77
2018-12-17T00:37:39.624Z,22.77
2018-12-17T00:38:11.291Z,22.80
2018-12-17T00:38:42.886Z,22.72
2018-12-17T00:39:14.479Z,22.85
2018-12-17T00:39:46.078Z,22.87
2018-12-17T00:40:17.704Z,22.89
2018-12-17T00:40:49.298Z,22.89
2018-12-17T00:41:20.894Z,22.90
2018-12-17T00:41:52.485Z,22.90
2018-12-17T00:42:24.095Z,22.90
2018-12-17T00:42:55.685Z,22.92
2018-12-17T00:43:27.301Z,22.92
2018-12-17T00:43:58.911Z,22.92
2018-12-17T00:44:30.501Z,22.94
2018-12-17T00:45:02.108Z,22.95
2018-12-17T00:45:33.722Z,22.97
2018-12-17T00:46:05.318Z,22.98
2018-12-17T00:46:36.914Z,22.97
2018-12-17T00:47:08.506Z,22.99
2018-12-17T00:47:40.101Z,22.99
2018-12-17T00:48:11.698Z,22.99
2018-12-17T00:48:43.336Z,23.00
2018-12-17T00:49:14.929Z,23.00
2018-12-17T00:49:46.521Z,23.01
2018-12-17T00:50:18.123Z,23.01
2018-12-17T00:50:49.732Z,23.01
2018-12-17T00:51:21.339Z,23.02
2018-12-17T00:51:52.922Z,23.02
2018-12-17T00:52:24.513Z,23.04
2018-12-17T00:52:56.111Z,23.03
2018-12-17T00:53:27.767Z,23.03
2018-12-17T00:53:59.376Z,23.02
2018-12-17T00:54:30.970Z,23.02
2018-12-17T00:55:02.562Z,23.02
2018-12-17T00:55:34.157Z,22.99
2018-12-17T00:56:05.759Z,22.98
2018-12-17T00:56:37.349Z,22.96
2018-12-17T00:57:08.973Z,22.96
2018-12-17T00:57:40.566Z,22.93
2018-12-17T00:58:15.139Z,22.90
2018-12-17T00:58:43.834Z,22.89
2018-12-17T00:59:15.415Z,22.86
2018-12-17T00:59:47.020Z,22.86
2018-12-17T01:00:18.615Z,22.86
2018-12-17T01:00:50.201Z,22.86
2018-12-17T01:01:21.809Z,22.87
2018-12-17T01:01:53.402Z,22.87
2018-12-17T01:02:24.980Z,22.82
2018-12-17T01:02:56.574Z,22.78
2018-12-17T01:03:28.208Z,22.78
2018-12-17T01:03:59.831Z,22.77
2018-12-17T01:04:31.436Z,22.75
2018-12-17T01:05:03.050Z,22.72
2018-12-17T01:05:34.663Z,22.70
2018-12-17T01:06:06.257Z,22.68
2018-12-17T01:06:37.847Z,22.64
2018-12-17T01:07:09.453Z,22.63
2018-12-17T01:07:41.045Z,22.61
2018-12-17T01:08:12.688Z,22.57
2018-12-17T01:08:44.311Z,22.53
2018-12-17T01:09:15.901Z,22.51
2018-12-17T01:09:47.506Z,22.48
2018-12-17T01:10:19.113Z,22.46
2018-12-17T01:10:50.706Z,22.44
2018-12-17T01:11:22.311Z,22.42
2018-12-17T01:11:53.924Z,22.41
2018-12-17T01:12:25.514Z,22.40
2018-12-17T01:12:57.105Z,22.39
2018-12-17T01:13:28.692Z,22.39
2018-12-17T01:14:00.314Z,22.37
2018-12-17T01:14:31.906Z,22.38
2018-12-17T01:15:03.501Z,22.36
2018-12-17T01:15:35.115Z,22.34
2018-12-17T01:16:06.728Z,22.33
2018-12-17T01:16:38.312Z,22.32
2018-12-17T01:17:09.920Z,22.29
2018-12-17T01:17:41.513Z,22.28
2018-12-17T01:18:13.113Z,22.26
2018-12-17T01:18:44.907Z,22.25
2018-12-17T01:19:16.488Z,22.22
2018-12-17T01:19:48.100Z,22.19
2018-12-17T01:20:19.707Z,22.17
2018-12-17T01:20:51.320Z,22.15
2018-12-17T01:21:22.917Z,22.15
2018-12-17T01:21:54.513Z,22.12
2018-12-17T01:22:26.124Z,22.12
2018-12-17T01:22:57.735Z,22.09
2018-12-17T01:23:29.334Z,22.07
2018-12-17T01:24:00.968Z,22.05
2018-12-17T01:24:32.566Z,22.04
2018-12-17T01:25:04.173Z,21.85
2018-12-17T01:25:35.769Z,22.04
2018-12-17T01:26:07.371Z,22.04
2018-12-17T01:26:38.980Z,22.04
2018-12-17T01:27:10.634Z,22.04
2018-12-17T01:27:42.247Z,22.04
2018-12-17T01:28:13.851Z,22.02
2018-12-17T01:28:45.451Z,22.02
2018-12-17T01:29:17.055Z,22.01
2018-12-17T01:29:48.645Z,21.98
2018-12-17T01:30:20.248Z,22.00
2018-12-17T01:30:51.851Z,22.00
2018-12-17T01:31:23.432Z,22.00
2018-12-17T01:31:55.043Z,21.99
2018-12-17T01:32:26.656Z,22.00
2018-12-17T01:32:58.262Z,22.02
2018-12-17T01:33:29.873Z,22.02
2018-12-17T01:34:01.494Z,22.03
2018-12-17T01:34:33.104Z,22.04
2018-12-17T01:35:04.699Z,22.06
2018-12-17T01:35:36.367Z,22.05
2018-12-17T01:36:07.954Z,22.05
2018-12-17T01:36:39.554Z,22.04
2018-12-17T01:37:11.145Z,22.03
2018-12-17T01:37:42.752Z,22.03
2018-12-17T01:38:14.345Z,22.02
2018-12-17T01:38:45.955Z,22.01
2018-12-17T01:39:17.552Z,22.00
2018-12-17T01:39:49.149Z,21.99
2018-12-17T01:40:20.746Z,21.99
2018-12-17T01:40:52.342Z,21.99
2018-12-17T01:41:23.938Z,21.99
2018-12-17T01:41:55.534Z,22.00
2018-12-17T01:42:27.136Z,22.02
2018-12-17T01:42:58.730Z,22.03
2018-12-17T01:43:30.322Z,22.03
2018-12-17T01:44:01.951Z,22.05
2018-12-17T01:44:33.588Z,22.05
2018-12-17T01:45:05.177Z,22.08
2018-12-17T01:45:36.767Z,22.11
2018-12-17T01:46:08.352Z,22.14
2018-12-17T01:46:39.940Z,22.18
2018-12-17T01:47:11.535Z,22.18
2018-12-17T01:47:43.117Z,22.22
2018-12-17T01:48:14.732Z,22.24
2018-12-17T01:48:46.325Z,22.25
2018-12-17T01:49:17.946Z,22.29
2018-12-17T01:49:49.560Z,22.31
2018-12-17T01:50:21.170Z,22.32
2018-12-17T01:50:52.765Z,22.35
2018-12-17T01:51:24.372Z,22.37
2018-12-17T01:51:55.987Z,22.36
2018-12-17T01:52:27.586Z,22.41
2018-12-17T01:52:59.197Z,22.43
2018-12-17T01:53:30.788Z,22.46
2018-12-17T01:54:02.385Z,22.49
2018-12-17T01:54:33.996Z,22.50
2018-12-17T01:55:36.892Z,22.55
2018-12-17T01:56:08.490Z,22.57
2018-12-17T01:56:40.090Z,22.61
2018-12-17T01:57:11.681Z,22.64
2018-12-17T01:57:43.278Z,22.67
2018-12-17T01:58:14.878Z,22.69
2018-12-17T01:58:46.483Z,22.72
2018-12-17T01:59:18.077Z,22.73
2018-12-17T01:59:49.702Z,22.74
2018-12-17T02:00:21.284Z,22.77
2018-12-17T02:00:52.868Z,22.78
2018-12-17T02:01:24.465Z,22.80
2018-12-17T02:01:56.053Z,22.83
2018-12-17T02:02:27.660Z,22.84
2018-12-17T02:02:59.271Z,22.84
2018-12-17T02:03:30.855Z,22.86
2018-12-17T02:04:02.459Z,22.67
2018-12-17T02:04:34.081Z,22.89
2018-12-17T02:05:05.687Z,22.89
2018-12-17T02:05:37.286Z,22.91
2018-12-17T02:06:08.878Z,22.90
2018-12-17T02:06:40.475Z,22.92
2018-12-17T02:07:12.079Z,22.92
2018-12-17T02:07:43.688Z,22.91
2018-12-17T02:08:15.300Z,22.90
2018-12-17T02:08:46.907Z,22.91
2018-12-17T02:09:18.503Z,22.90
2018-12-17T02:09:50.122Z,22.90
2018-12-17T02:10:21.724Z,22.90
2018-12-17T02:10:53.307Z,22.87
2018-12-17T02:11:24.901Z,22.88
2018-12-17T02:11:56.559Z,22.87
2018-12-17T02:12:28.153Z,22.85
2018-12-17T02:12:59.749Z,22.84
2018-12-17T02:13:31.323Z,22.82
2018-12-17T02:14:02.932Z,22.82
2018-12-17T02:14:34.559Z,22.81
2018-12-17T02:15:06.153Z,22.79
2018-12-17T02:15:37.763Z,22.78
2018-12-17T02:16:09.370Z,22.75
2018-12-17T02:16:40.984Z,22.73
2018-12-17T02:17:12.572Z,22.71
2018-12-17T02:17:44.166Z,22.69
2018-12-17T02:18:15.770Z,22.67
2018-12-17T02:18:47.360Z,22.64
2018-12-17T02:19:18.959Z,22.62
2018-12-17T02:19:50.592Z,22.59
2018-12-17T02:20:22.186Z,22.58
2018-12-17T02:20:53.782Z,22.58
2018-12-17T02:21:25.392Z,22.56
2018-12-17T02:21:56.985Z,22.53
2018-12-17T02:22:28.581Z,22.48
2018-12-17T02:23:00.177Z,22.47
2018-12-17T02:23:31.762Z,22.44
2018-12-17T02:24:03.376Z,22.41
2018-12-17T02:24:35.100Z,22.38
2018-12-17T02:25:06.707Z,22.36
2018-12-17T02:25:38.301Z,22.34
2018-12-17T02:26:09.914Z,22.31
2018-12-17T02:26:41.510Z,22.30
2018-12-17T02:27:13.117Z,22.29
2018-12-17T02:27:44.715Z,22.27
2018-12-17T02:28:16.305Z,22.27
2018-12-17T02:28:47.897Z,22.25
2018-12-17T02:29:19.524Z,22.24
2018-12-17T02:29:51.146Z,22.22
2018-12-17T02:30:22.743Z,22.20
2018-12-17T02:30:54.333Z,22.19
2018-12-17T02:31:25.939Z,22.18
2018-12-17T02:31:57.569Z,22.08
2018-12-17T02:32:29.234Z,22.16
2018-12-17T02:33:00.814Z,22.15
2018-12-17T02:33:32.420Z,22.12
2018-12-17T02:34:04.019Z,22.11
2018-12-17T02:34:35.631Z,22.10
2018-12-17T02:35:07.257Z,22.09
2018-12-17T02:35:38.879Z,21.87
2018-12-17T02:36:10.492Z,22.06
2018-12-17T02:36:42.150Z,22.05
2018-12-17T02:37:13.760Z,22.03
2018-12-17T02:37:45.357Z,22.02
2018-12-17T02:38:16.956Z,21.99
2018-12-17T02:38:48.554Z,21.99
2018-12-17T02:39:20.154Z,21.98
2018-12-17T02:39:51.763Z,21.97
2018-12-17T02:40:23.400Z,21.95
2018-12-17T02:40:55.009Z,21.94
2018-12-17T02:41:26.605Z,21.94
2018-12-17T02:41:58.211Z,21.94
2018-12-17T02:42:29.829Z,21.93
2018-12-17T02:43:01.432Z,21.92
2018-12-17T02:43:33.040Z,21.90
2018-12-17T02:44:04.637Z,21.91
2018-12-17T02:44:36.239Z,21.91
2018-12-17T02:45:07.881Z,21.90
2018-12-17T02:45:39.492Z,21.89
2018-12-17T02:46:11.086Z,21.87
2018-12-17T02:46:42.702Z,21.89
2018-12-17T02:47:14.297Z,21.88
2018-12-17T02:47:45.894Z,21.88
2018-12-17T02:48:17.485Z,21.88
2018-12-17T02:48:49.068Z,21.89
2018-12-17T02:49:20.662Z,21.91
2018-12-17T02:49:52.254Z,21.91
2018-12-17T02:50:23.872Z,21.93
2018-12-17T02:50:55.469Z,21.94
2018-12-17T02:51:27.080Z,21.95
2018-12-17T02:51:58.681Z,21.96
2018-12-17T02:52:30.286Z,21.96
2018-12-17T02:53:01.913Z,21.95
2018-12-17T02:53:33.514Z,21.96
2018-12-17T02:54:05.106Z,21.97
2018-12-17T02:54:36.715Z,21.97
2018-12-17T02:55:08.310Z,22.01
2018-12-17T02:55:39.953Z,22.02
2018-12-17T02:56:11.571Z,21.91
2018-12-17T02:56:43.176Z,22.03
2018-12-17T02:57:14.785Z,22.04
2018-12-17T02:57:46.391Z,22.04
2018-12-17T02:58:18.012Z,22.04
2018-12-17T02:58:49.619Z,22.05
2018-12-17T02:59:21.215Z,22.05
2018-12-17T02:59:52.814Z,22.06
2018-12-17T03:00:24.428Z,22.06
2018-12-17T03:00:56.031Z,22.08
2018-12-17T03:01:27.616Z,22.11
2018-12-17T03:01:59.228Z,22.13
2018-12-17T03:02:30.832Z,22.14
2018-12-17T03:03:02.442Z,22.14
2018-12-17T03:03:34.046Z,22.17
2018-12-17T03:04:05.642Z,22.21
2018-12-17T03:04:37.492Z,22.25
2018-12-17T03:05:09.137Z,22.29
2018-12-17T03:05:40.762Z,22.33
2018-12-17T03:06:12.355Z,22.39
2018-12-17T03:06:43.949Z,22.42
2018-12-17T03:07:15.541Z,22.46
2018-12-17T03:07:47.153Z,22.47
2018-12-17T03:08:18.763Z,22.47
2018-12-17T03:08:50.365Z,22.53
2018-12-17T03:09:21.958Z,22.56
2018-12-17T03:09:53.549Z,22.59
2018-12-17T03:10:25.143Z,22.63
2018-12-17T03:10:56.749Z,22.64
2018-12-17T03:11:28.356Z,22.66
2018-12-17T03:11:59.949Z,22.69
2018-12-17T03:12:31.551Z,22.72
2018-12-17T03:13:03.160Z,22.75
2018-12-17T03:13:34.748Z,22.77
2018-12-17T03:14:06.342Z,22.80
2018-12-17T03:14:37.933Z,22.83
2018-12-17T03:15:09.530Z,22.85
2018-12-17T03:15:41.121Z,22.86
2018-12-17T03:16:12.727Z,22.87
2018-12-17T03:16:44.325Z,22.87
2018-12-17T03:17:15.908Z,22.88
2018-12-17T03:17:47.501Z,22.87
2018-12-17T03:18:19.104Z,22.89
2018-12-17T03:18:50.698Z,22.91
2018-12-17T03:19:22.308Z,22.92
2018-12-17T03:19:53.900Z,22.94
2018-12-17T03:20:25.503Z,22.96
2018-12-17T03:20:57.133Z,22.96
2018-12-17T03:21:28.717Z,22.98
2018-12-17T03:22:00.315Z,22.98
2018-12-17T03:22:32.023Z,22.98
2018-12-17T03:23:03.628Z,22.98
2018-12-17T03:23:35.232Z,22.97
2018-12-17T03:24:06.829Z,22.99
2018-12-17T03:24:38.430Z,22.99
2018-12-17T03:25:10.041Z,23.00
2018-12-17T03:25:41.665Z,23.00
2018-12-17T03:26:13.258Z,23.01
2018-12-17T03:26:44.867Z,23.00
2018-12-17T03:27:16.473Z,23.00
2018-12-17T03:27:48.083Z,23.02
2018-12-17T03:28:19.692Z,23.02
2018-12-17T03:28:51.937Z,23.03
2018-12-17T03:29:22.942Z,23.00
2018-12-17T03:29:54.540Z,23.00
2018-12-17T03:30:26.155Z,22.97
2018-12-17T03:30:57.812Z,22.95
2018-12-17T03:31:29.437Z,22.92
2018-12-17T03:32:01.043Z,22.90
2018-12-17T03:32:32.675Z,22.87
2018-12-17T03:33:04.264Z,22.87
2018-12-17T03:33:35.848Z,22.84
2018-12-17T03:34:07.446Z,22.83
2018-12-17T03:34:39.044Z,22.82
2018-12-17T03:35:10.660Z,22.82
2018-12-17T03:35:42.253Z,22.81
2018-12-17T03:36:13.870Z,22.79
2018-12-17T03:36:45.456Z,22.79
2018-12-17T03:37:17.064Z,22.77
2018-12-17T03:37:48.649Z,22.78
2018-12-17T03:38:20.257Z,22.77
2018-12-17T03:38:51.867Z,22.78
2018-12-17T03:39:23.447Z,22.75
2018-12-17T03:39:55.038Z,22.73
2018-12-17T03:40:26.648Z,22.73
2018-12-17T03:40:58.471Z,22.76
2018-12-17T03:41:30.067Z,22.76
2018-12-17T03:42:01.668Z,22.31
2018-12-17T03:42:33.272Z,21.03
2018-12-17T03:43:04.866Z,19.91
2018-12-17T03:43:36.459Z,19.08
2018-12-17T03:44:08.056Z,18.59
2018-12-17T03:44:39.654Z,18.26
2018-12-17T03:45:11.267Z,17.92
2018-12-17T03:45:42.864Z,17.57
2018-12-17T03:46:14.495Z,17.28
2018-12-17T03:46:46.094Z,17.10
2018-12-17T03:47:17.704Z,17.03
2018-12-17T03:47:49.313Z,17.01
2018-12-17T03:48:20.900Z,16.97
2018-12-17T03:48:52.499Z,16.82
2018-12-17T03:49:24.099Z,16.95
2018-12-17T03:49:55.698Z,17.56
2018-12-17T03:50:27.287Z,18.13
2018-12-17T03:50:58.921Z,18.60
2018-12-17T03:51:30.561Z,19.05
2018-12-17T03:52:02.163Z,19.43
2018-12-17T03:52:33.766Z,19.75
2018-12-17T03:53:05.361Z,20.01
2018-12-17T03:53:36.958Z,20.22
2018-12-17T03:54:08.563Z,20.43
2018-12-17T03:54:40.148Z,20.42
2018-12-17T03:55:11.745Z,20.82
2018-12-17T03:55:43.337Z,21.06
2018-12-17T03:56:14.970Z,21.26
2018-12-17T03:56:46.580Z,21.39
2018-12-17T03:57:18.234Z,21.36
2018-12-17T03:57:49.834Z,21.69
2018-12-17T03:58:21.426Z,21.79
2018-12-17T03:58:59.309Z,21.92
2018-12-17T03:59:24.658Z,22.03
2018-12-17T03:59:56.292Z,22.06
2018-12-17T04:00:27.900Z,22.11
2018-12-17T04:00:59.518Z,22.16
2018-12-17T04:01:31.159Z,22.22
2018-12-17T04:02:02.753Z,22.26
2018-12-17T04:02:34.346Z,22.30
2018-12-17T04:03:05.941Z,22.33
2018-12-17T04:03:37.548Z,22.35
2018-12-17T04:04:09.148Z,22.38
2018-12-17T04:04:40.759Z,22.32
2018-12-17T04:05:12.353Z,22.45
2018-12-17T04:05:43.964Z,22.49
2018-12-17T04:06:15.608Z,22.54
2018-12-17T04:06:47.240Z,22.56
2018-12-17T04:07:18.835Z,22.37
2018-12-17T04:07:50.453Z,22.57
2018-12-17T04:08:22.050Z,22.58
2018-12-17T04:08:53.661Z,22.59
2018-12-17T04:09:25.267Z,22.61
2018-12-17T04:09:56.877Z,22.62
2018-12-17T04:10:28.485Z,22.64
2018-12-17T04:11:00.208Z,22.64
2018-12-17T04:11:31.841Z,22.67
2018-12-17T04:12:03.452Z,22.68
2018-12-17T04:12:35.044Z,22.68
2018-12-17T04:13:06.673Z,22.69
2018-12-17T04:13:38.281Z,22.71
2018-12-17T04:14:09.881Z,22.73
2018-12-17T04:14:41.481Z,22.75
2018-12-17T04:15:13.075Z,22.77
2018-12-17T04:15:44.674Z,22.76
2018-12-17T04:16:16.285Z,22.77
2018-12-17T04:16:47.920Z,22.77
2018-12-17T04:17:19.523Z,22.79
2018-12-17T04:17:51.128Z,22.83
2018-12-17T04:18:22.727Z,22.85
2018-12-17T04:18:54.325Z,22.85
2018-12-17T04:19:25.933Z,22.85
2018-12-17T04:19:57.545Z,22.83
2018-12-17T04:20:29.151Z,22.84
2018-12-17T04:21:00.745Z,22.83
2018-12-17T04:21:32.365Z,22.82
2018-12-17T04:22:03.963Z,22.84
2018-12-17T04:22:35.557Z,22.83
2018-12-17T04:23:07.140Z,22.85
2018-12-17T04:23:38.754Z,22.85
2018-12-17T04:24:10.361Z,22.86
2018-12-17T04:24:41.961Z,22.87
2018-12-17T04:25:13.576Z,22.86
2018-12-17T04:25:45.179Z,22.86
2018-12-17T04:26:16.788Z,22.85
2018-12-17T04:26:48.445Z,22.86
2018-12-17T04:27:20.067Z,22.59
2018-12-17T04:27:51.670Z,22.86
2018-12-17T04:28:23.276Z,22.86
2018-12-17T04:28:54.916Z,22.87
2018-12-17T04:29:26.504Z,22.85
2018-12-17T04:29:58.111Z,22.88
2018-12-17T04:30:29.697Z,22.89
2018-12-17T04:31:01.290Z,22.91
2018-12-17T04:31:32.924Z,22.90
2018-12-17T04:32:04.525Z,22.88
2018-12-17T04:32:36.107Z,22.91
2018-12-17T04:33:07.713Z,22.89
2018-12-17T04:33:39.309Z,22.90
2018-12-17T04:34:10.915Z,22.90
2018-12-17T04:34:42.527Z,22.90
2018-12-17T04:35:14.126Z,22.89
2018-12-17T04:35:45.727Z,22.88
2018-12-17T04:36:17.337Z,22.88
2018-12-17T04:36:48.975Z,22.63
2018-12-17T04:37:20.584Z,22.84
2018-12-17T04:37:52.191Z,22.84
2018-12-17T04:38:23.791Z,22.82
2018-12-17T04:38:55.381Z,22.80
2018-12-17T04:39:26.973Z,22.80
2018-12-17T04:39:58.565Z,22.76
2018-12-17T04:40:30.157Z,22.76
2018-12-17T04:41:01.749Z,22.74
2018-12-17T04:41:33.412Z,22.75
2018-12-17T04:42:05.012Z,22.71
2018-12-17T04:42:36.605Z,22.70
2018-12-17T04:43:08.201Z,22.70
2018-12-17T04:43:39.802Z,22.69
2018-12-17T04:44:11.407Z,22.67
2018-12-17T04:44:43.009Z,22.64
2018-12-17T04:45:14.600Z,22.62
2018-12-17T04:45:46.194Z,22.58
2018-12-17T04:46:17.801Z,22.56
2018-12-17T04:46:49.440Z,22.51
2018-12-17T04:47:21.048Z,22.52
2018-12-17T04:47:52.657Z,22.50
2018-12-17T04:48:24.244Z,22.47
2018-12-17T04:48:55.840Z,22.44
2018-12-17T04:49:27.423Z,22.43
2018-12-17T04:49:59.032Z,22.41
2018-12-17T04:50:30.641Z,22.38
2018-12-17T04:51:02.241Z,22.37
2018-12-17T04:51:33.834Z,22.35
2018-12-17T04:52:05.453Z,22.34
2018-12-17T04:52:37.063Z,22.31
2018-12-17T04:53:08.659Z,22.29
2018-12-17T04:53:40.244Z,22.28
2018-12-17T04:54:11.838Z,22.26
2018-12-17T04:54:43.481Z,22.25
2018-12-17T04:55:15.074Z,22.23
2018-12-17T04:55:46.688Z,22.19
2018-12-17T04:56:18.285Z,22.18
2018-12-17T04:56:49.936Z,22.17
2018-12-17T04:57:21.534Z,22.16
2018-12-17T04:57:53.144Z,22.13
2018-12-17T04:58:24.741Z,22.11
2018-12-17T04:58:56.349Z,22.08
2018-12-17T04:59:27.959Z,22.08
2018-12-17T04:59:59.569Z,22.07
2018-12-17T05:00:31.165Z,22.05
2018-12-17T05:01:02.772Z,22.04
2018-12-17T05:01:34.373Z,21.90
2018-12-17T05:02:06.021Z,22.00
2018-12-17T05:02:37.639Z,21.98
2018-12-17T05:03:09.246Z,21.97
2018-12-17T05:03:40.860Z,21.94
2018-12-17T05:04:12.497Z,21.93
2018-12-17T05:04:44.100Z,21.92
2018-12-17T05:05:15.694Z,21.90
2018-12-17T05:05:47.289Z,21.88
2018-12-17T05:06:18.872Z,21.86
2018-12-17T05:06:50.452Z,21.85
2018-12-17T05:07:22.056Z,21.83
2018-12-17T05:07:53.654Z,21.82
2018-12-17T05:08:25.245Z,21.81
2018-12-17T05:08:56.837Z,21.81
2018-12-17T05:09:28.443Z,21.80
2018-12-17T05:10:00.037Z,21.78
2018-12-17T05:10:31.651Z,21.77
2018-12-17T05:11:03.264Z,21.76
2018-12-17T05:11:34.877Z,21.76
2018-12-17T05:12:06.473Z,21.74
2018-12-17T05:12:38.081Z,21.71
2018-12-17T05:13:09.665Z,21.72
2018-12-17T05:13:41.259Z,21.71
2018-12-17T05:14:12.875Z,21.71
2018-12-17T05:14:44.469Z,21.69
2018-12-17T05:15:16.065Z,21.69
2018-12-17T05:15:47.752Z,21.69
2018-12-17T05:16:19.354Z,21.68
2018-12-17T05:16:50.950Z,21.68
2018-12-17T05:17:22.585Z,21.67
2018-12-17T05:17:54.172Z,21.67
2018-12-17T05:18:25.770Z,21.66
2018-12-17T05:18:57.379Z,21.64
2018-12-17T05:19:28.983Z,21.64
2018-12-17T05:20:00.578Z,21.64
2018-12-17T05:20:32.173Z,21.63
2018-12-17T05:21:03.781Z,21.63
2018-12-17T05:21:35.396Z,21.63
2018-12-17T05:22:07.018Z,21.65
2018-12-17T05:22:38.613Z,21.65
2018-12-17T05:23:10.206Z,21.66
2018-12-17T05:23:41.805Z,21.68
2018-12-17T05:24:13.398Z,21.68
2018-12-17T05:24:44.994Z,21.68
2018-12-17T05:25:16.576Z,21.69
2018-12-17T05:25:48.174Z,21.69
2018-12-17T05:26:19.785Z,21.72
2018-12-17T05:26:51.393Z,21.74
2018-12-17T05:27:23.022Z,21.76
2018-12-17T05:27:54.613Z,21.78
2018-12-17T05:28:26.216Z,21.78
2018-12-17T05:28:57.828Z,21.83
2018-12-17T05:29:29.426Z,21.85
2018-12-17T05:30:01.019Z,21.88
2018-12-17T05:30:32.627Z,21.92
2018-12-17T05:31:04.221Z,21.94
2018-12-17T05:31:35.831Z,21.99
2018-12-17T05:32:08.360Z,22.02
2018-12-17T05:32:39.992Z,22.05
2018-12-17T05:33:11.583Z,22.09
2018-12-17T05:33:43.192Z,22.11
2018-12-17T05:34:14.776Z,22.16
2018-12-17T05:34:46.387Z,22.19
2018-12-17T05:35:17.985Z,22.20
2018-12-17T05:35:49.586Z,22.24
2018-12-17T05:36:21.179Z,22.27
2018-12-17T05:36:52.762Z,22.28
2018-12-17T05:37:24.397Z,22.30
2018-12-17T05:37:55.998Z,22.33
2018-12-17T05:38:27.604Z,22.34
2018-12-17T05:38:59.212Z,22.35
2018-12-17T05:39:30.824Z,22.39
2018-12-17T05:40:02.447Z,22.40
2018-12-17T05:40:34.036Z,22.42
2018-12-17T05:41:05.628Z,22.42
2018-12-17T05:41:37.226Z,22.46
2018-12-17T05:42:08.822Z,22.48
2018-12-17T05:42:40.460Z,22.48
2018-12-17T05:43:12.063Z,22.51
2018-12-17T05:43:43.672Z,22.50
2018-12-17T05:44:15.261Z,22.51
2018-12-17T05:44:46.844Z,22.41
2018-12-17T05:45:18.443Z,22.53
2018-12-17T05:45:50.039Z,22.54
2018-12-17T05:46:21.629Z,22.55
2018-12-17T05:46:53.233Z,22.55
2018-12-17T05:47:24.878Z,22.58
2018-12-17T05:47:56.488Z,22.57
2018-12-17T05:48:28.096Z,22.57
2018-12-17T05:48:59.697Z,22.58
2018-12-17T05:49:31.291Z,22.58
2018-12-17T05:50:02.897Z,22.58
2018-12-17T05:50:34.484Z,22.58
2018-12-17T05:51:06.077Z,22.60
2018-12-17T05:51:37.677Z,22.61
2018-12-17T05:52:09.269Z,22.60
2018-12-17T05:52:40.889Z,22.61
2018-12-17T05:53:12.486Z,22.60
2018-12-17T05:53:44.102Z,22.60
2018-12-17T05:54:15.700Z,22.61
2018-12-17T05:54:47.293Z,22.61
2018-12-17T05:55:18.878Z,22.60
2018-12-17T05:55:50.492Z,22.61
2018-12-17T05:56:22.104Z,22.60
2018-12-17T05:56:53.702Z,22.60
2018-12-17T05:57:25.293Z,22.59
2018-12-17T05:57:56.927Z,22.60
2018-12-17T05:58:28.524Z,22.60
2018-12-17T05:59:00.117Z,22.60
2018-12-17T05:59:31.710Z,22.61
2018-12-17T06:00:03.305Z,22.60
2018-12-17T06:00:34.897Z,22.58
2018-12-17T06:01:06.507Z,22.59
2018-12-17T06:01:38.105Z,22.60
2018-12-17T06:02:09.702Z,22.60
2018-12-17T06:02:41.297Z,22.60
2018-12-17T06:03:12.914Z,22.59
2018-12-17T06:03:44.511Z,22.58
2018-12-17T06:04:16.128Z,22.57
2018-12-17T06:04:47.725Z,22.55
2018-12-17T06:05:19.318Z,22.54
2018-12-17T06:05:50.910Z,22.52
2018-12-17T06:06:22.509Z,22.51
2018-12-17T06:06:54.102Z,22.50
2018-12-17T06:07:25.693Z,22.48
2018-12-17T06:07:57.327Z,22.47
2018-12-17T06:08:28.964Z,22.46
2018-12-17T06:09:00.558Z,22.45
2018-12-17T06:09:32.166Z,22.44
2018-12-17T06:10:03.761Z,22.42
2018-12-17T06:10:35.411Z,22.42
2018-12-17T06:11:07.006Z,22.41
2018-12-17T06:11:38.608Z,22.39
2018-12-17T06:12:10.220Z,22.38
2018-12-17T06:12:41.839Z,22.37
2018-12-17T06:13:13.457Z,22.36
2018-12-17T06:13:45.050Z,22.35
2018-12-17T06:14:16.657Z,22.34
2018-12-17T06:14:49.270Z,22.32
2018-12-17T06:15:20.866Z,22.29
2018-12-17T06:15:52.457Z,22.28
2018-12-17T06:16:24.070Z,22.26
2018-12-17T06:16:55.659Z,22.25
2018-12-17T06:17:27.254Z,22.23
2018-12-17T06:17:58.917Z,22.14
2018-12-17T06:18:30.552Z,22.18
2018-12-17T06:19:02.151Z,22.17
2018-12-17T06:19:33.760Z,22.15
2018-12-17T06:20:05.361Z,22.14
2018-12-17T06:20:36.963Z,22.14
2018-12-17T06:21:08.557Z,22.11
2018-12-17T06:21:40.155Z,22.10
2018-12-17T06:22:11.749Z,22.09
2018-12-17T06:22:43.342Z,22.08
2018-12-17T06:23:14.977Z,22.07
2018-12-17T06:23:46.573Z,22.06
2018-12-17T06:24:18.165Z,22.04
2018-12-17T06:24:49.758Z,22.05
2018-12-17T06:25:21.355Z,22.03
2018-12-17T06:25:52.972Z,22.01
2018-12-17T06:26:24.581Z,22.01
2018-12-17T06:26:56.192Z,22.00
2018-12-17T06:27:27.790Z,22.00
2018-12-17T06:27:59.376Z,21.98
2018-12-17T06:28:30.998Z,21.98
2018-12-17T06:29:02.592Z,21.97
2018-12-17T06:29:35.691Z,21.96
2018-12-17T06:30:05.835Z,21.95
2018-12-17T06:30:37.426Z,21.93
2018-12-17T06:31:09.032Z,21.92
2018-12-17T06:31:40.640Z,21.90
2018-12-17T06:32:12.223Z,21.86
2018-12-17T06:32:43.818Z,21.85
2018-12-17T06:33:15.764Z,21.83
2018-12-17T06:33:47.102Z,21.80
2018-12-17T06:34:18.697Z,21.78
2018-12-17T06:34:50.303Z,21.76
2018-12-17T06:35:21.915Z,21.74
2018-12-17T06:35:53.510Z,21.72
2018-12-17T06:36:25.123Z,21.71
2018-12-17T06:36:56.725Z,21.67
2018-12-17T06:37:28.321Z,21.67
2018-12-17T06:37:59.927Z,21.64
2018-12-17T06:38:31.567Z,21.62
2018-12-17T06:39:03.189Z,21.60
2018-12-17T06:39:34.788Z,21.57
2018-12-17T06:40:10.319Z,21.54
2018-12-17T06:40:38.033Z,21.53
2018-12-17T06:41:09.635Z,21.50
2018-12-17T06:41:41.233Z,21.47
2018-12-17T06:42:12.839Z,21.45
2018-12-17T06:42:44.455Z,21.44
2018-12-17T06:43:16.054Z,21.43
2018-12-17T06:43:47.660Z,21.42
2018-12-17T06:44:19.258Z,21.41
2018-12-17T06:44:50.872Z,21.39
2018-12-17T06:45:22.495Z,21.39
2018-12-17T06:45:54.119Z,21.38
2018-12-17T06:46:25.711Z,21.38
2018-12-17T06:46:57.318Z,21.38
2018-12-17T06:47:28.914Z,21.39